sensor_id;sensor_type;location;lat;lon;timestamp;temperature;humidity
4433;DHT22;2229;48.708;9.706;2023-05-27T00:01:28;16.40;67.60
4433;DHT22;2229;48.708;9.706;2023-05-27T00:03:56;16.30;67.80
4433;DHT22;2229;48.708;9.706;2023-05-27T00:06:23;16.30;68.70
4433;DHT22;2229;48.708;9.706;2023-05-27T00:08:50;16.20;68.00
4433;DHT22;2229;48.708;9.706;2023-05-27T00:11:17;16.10;68.10
4433;DHT22;2229;48.708;9.706;2023-05-27T00:13:44;16.10;68.20
4433;DHT22;2229;48.708;9.706;2023-05-27T00:16:12;16.00;68.40
4433;DHT22;2229;48.708;9.706;2023-05-27T00:18:39;16.00;68.60
4433;DHT22;2229;48.708;9.706;2023-05-27T00:21:08;15.90;68.70
4433;DHT22;2229;48.708;9.706;2023-05-27T00:23:35;15.80;68.80
4433;DHT22;2229;48.708;9.706;2023-05-27T00:26:02;15.80;69.10
4433;DHT22;2229;48.708;9.706;2023-05-27T00:28:29;15.70;69.30
4433;DHT22;2229;48.708;9.706;2023-05-27T00:30:57;15.70;69.50
4433;DHT22;2229;48.708;9.706;2023-05-27T00:33:24;15.60;69.70
4433;DHT22;2229;48.708;9.706;2023-05-27T00:35:51;15.60;69.80
4433;DHT22;2229;48.708;9.706;2023-05-27T00:38:20;15.50;69.90
4433;DHT22;2229;48.708;9.706;2023-05-27T00:40:49;15.50;70.10
4433;DHT22;2229;48.708;9.706;2023-05-27T00:43:19;15.50;70.20
4433;DHT22;2229;48.708;9.706;2023-05-27T00:45:47;15.40;70.30
4433;DHT22;2229;48.708;9.706;2023-05-27T00:48:14;15.40;70.50
4433;DHT22;2229;48.708;9.706;2023-05-27T00:50:41;15.40;70.60
4433;DHT22;2229;48.708;9.706;2023-05-27T00:53:08;15.30;70.60
4433;DHT22;2229;48.708;9.706;2023-05-27T00:55:37;15.30;70.80
4433;DHT22;2229;48.708;9.706;2023-05-27T00:58:04;15.30;70.90
4433;DHT22;2229;48.708;9.706;2023-05-27T01:00:33;15.30;71.00
4433;DHT22;2229;48.708;9.706;2023-05-27T01:03:00;15.20;71.10
4433;DHT22;2229;48.708;9.706;2023-05-27T01:05:27;15.20;71.30
4433;DHT22;2229;48.708;9.706;2023-05-27T01:08:03;15.20;71.40
4433;DHT22;2229;48.708;9.706;2023-05-27T01:10:38;15.20;71.40
4433;DHT22;2229;48.708;9.706;2023-05-27T01:13:13;15.10;71.50
4433;DHT22;2229;48.708;9.706;2023-05-27T01:15:42;15.10;71.60
4433;DHT22;2229;48.708;9.706;2023-05-27T01:18:12;15.10;71.80
4433;DHT22;2229;48.708;9.706;2023-05-27T01:20:45;15.00;71.80
4433;DHT22;2229;48.708;9.706;2023-05-27T01:23:16;15.00;72.60
4433;DHT22;2229;48.708;9.706;2023-05-27T01:25:43;15.00;72.00
4433;DHT22;2229;48.708;9.706;2023-05-27T01:28:11;14.90;72.00
4433;DHT22;2229;48.708;9.706;2023-05-27T01:30:38;15.00;72.30
4433;DHT22;2229;48.708;9.706;2023-05-27T01:33:08;14.90;72.30
4433;DHT22;2229;48.708;9.706;2023-05-27T01:35:41;14.90;72.40
4433;DHT22;2229;48.708;9.706;2023-05-27T01:38:12;14.80;72.50
4433;DHT22;2229;48.708;9.706;2023-05-27T01:40:41;14.80;72.60
4433;DHT22;2229;48.708;9.706;2023-05-27T01:43:09;14.80;72.80
4433;DHT22;2229;48.708;9.706;2023-05-27T01:45:40;14.70;72.90
4433;DHT22;2229;48.708;9.706;2023-05-27T01:48:08;14.70;73.10
4433;DHT22;2229;48.708;9.706;2023-05-27T01:50:35;14.70;73.10
4433;DHT22;2229;48.708;9.706;2023-05-27T01:53:03;14.70;73.90
4433;DHT22;2229;48.708;9.706;2023-05-27T01:55:30;14.70;74.00
4433;DHT22;2229;48.708;9.706;2023-05-27T01:57:59;14.60;74.00
4433;DHT22;2229;48.708;9.706;2023-05-27T02:00:26;14.60;73.40
4433;DHT22;2229;48.708;9.706;2023-05-27T02:02:54;14.60;73.50
4433;DHT22;2229;48.708;9.706;2023-05-27T02:05:21;14.50;73.50
4433;DHT22;2229;48.708;9.706;2023-05-27T02:07:49;14.50;73.70
4433;DHT22;2229;48.708;9.706;2023-05-27T02:10:16;14.50;73.70
4433;DHT22;2229;48.708;9.706;2023-05-27T02:12:43;14.50;73.90
4433;DHT22;2229;48.708;9.706;2023-05-27T02:15:13;14.50;74.00
4433;DHT22;2229;48.708;9.706;2023-05-27T02:17:42;14.40;74.10
4433;DHT22;2229;48.708;9.706;2023-05-27T02:20:11;14.40;74.20
4433;DHT22;2229;48.708;9.706;2023-05-27T02:22:38;14.40;74.30
4433;DHT22;2229;48.708;9.706;2023-05-27T02:25:06;14.40;74.40
4433;DHT22;2229;48.708;9.706;2023-05-27T02:27:33;14.40;74.50
4433;DHT22;2229;48.708;9.706;2023-05-27T02:30:01;14.30;74.50
4433;DHT22;2229;48.708;9.706;2023-05-27T02:32:29;14.30;74.50
4433;DHT22;2229;48.708;9.706;2023-05-27T02:34:57;14.30;74.60
4433;DHT22;2229;48.708;9.706;2023-05-27T02:37:24;14.30;74.70
4433;DHT22;2229;48.708;9.706;2023-05-27T02:39:53;14.30;74.90
4433;DHT22;2229;48.708;9.706;2023-05-27T02:42:22;14.30;74.90
4433;DHT22;2229;48.708;9.706;2023-05-27T02:44:50;14.30;75.10
4433;DHT22;2229;48.708;9.706;2023-05-27T02:47:17;14.30;75.10
4433;DHT22;2229;48.708;9.706;2023-05-27T02:49:46;14.20;75.20
4433;DHT22;2229;48.708;9.706;2023-05-27T02:52:13;14.20;75.30
4433;DHT22;2229;48.708;9.706;2023-05-27T02:54:40;14.20;75.40
4433;DHT22;2229;48.708;9.706;2023-05-27T02:57:07;14.20;75.60
4433;DHT22;2229;48.708;9.706;2023-05-27T02:59:35;14.10;75.60
4433;DHT22;2229;48.708;9.706;2023-05-27T03:02:02;14.10;75.70
4433;DHT22;2229;48.708;9.706;2023-05-27T03:04:29;14.10;76.50
4433;DHT22;2229;48.708;9.706;2023-05-27T03:06:58;14.10;76.60
4433;DHT22;2229;48.708;9.706;2023-05-27T03:09:26;14.10;76.00
4433;DHT22;2229;48.708;9.706;2023-05-27T03:11:53;14.00;76.10
4433;DHT22;2229;48.708;9.706;2023-05-27T03:14:21;14.00;76.20
4433;DHT22;2229;48.708;9.706;2023-05-27T03:16:48;14.00;76.30
4433;DHT22;2229;48.708;9.706;2023-05-27T03:19:16;13.90;76.30
4433;DHT22;2229;48.708;9.706;2023-05-27T03:21:44;13.90;76.40
4433;DHT22;2229;48.708;9.706;2023-05-27T03:24:14;13.90;76.50
4433;DHT22;2229;48.708;9.706;2023-05-27T03:26:42;13.90;76.60
4433;DHT22;2229;48.708;9.706;2023-05-27T03:29:09;13.90;76.70
4433;DHT22;2229;48.708;9.706;2023-05-27T03:31:37;13.80;76.70
4433;DHT22;2229;48.708;9.706;2023-05-27T03:34:08;13.80;76.80
4433;DHT22;2229;48.708;9.706;2023-05-27T03:36:39;13.80;76.90
4433;DHT22;2229;48.708;9.706;2023-05-27T03:39:09;13.80;77.10
4433;DHT22;2229;48.708;9.706;2023-05-27T03:41:41;13.80;77.20
4433;DHT22;2229;48.708;9.706;2023-05-27T03:44:12;13.80;77.30
4433;DHT22;2229;48.708;9.706;2023-05-27T03:46:39;13.90;77.40
4433;DHT22;2229;48.708;9.706;2023-05-27T03:49:06;13.90;77.50
4433;DHT22;2229;48.708;9.706;2023-05-27T03:51:34;13.90;77.80
4433;DHT22;2229;48.708;9.706;2023-05-27T03:54:01;13.90;77.90
4433;DHT22;2229;48.708;9.706;2023-05-27T03:56:31;13.80;78.00
4433;DHT22;2229;48.708;9.706;2023-05-27T03:58:59;13.80;78.90
4433;DHT22;2229;48.708;9.706;2023-05-27T04:01:28;13.90;78.40
4433;DHT22;2229;48.708;9.706;2023-05-27T04:03:55;13.80;78.40
4433;DHT22;2229;48.708;9.706;2023-05-27T04:06:22;13.80;78.60
4433;DHT22;2229;48.708;9.706;2023-05-27T04:08:50;13.80;78.70
4433;DHT22;2229;48.708;9.706;2023-05-27T04:11:18;13.80;78.70
4433;DHT22;2229;48.708;9.706;2023-05-27T04:13:45;13.80;78.90
4433;DHT22;2229;48.708;9.706;2023-05-27T04:16:14;13.80;79.00
4433;DHT22;2229;48.708;9.706;2023-05-27T04:18:42;13.80;78.90
4433;DHT22;2229;48.708;9.706;2023-05-27T04:21:14;13.90;79.10
4433;DHT22;2229;48.708;9.706;2023-05-27T04:23:42;13.90;79.00
4433;DHT22;2229;48.708;9.706;2023-05-27T04:26:09;13.90;78.90
4433;DHT22;2229;48.708;9.706;2023-05-27T04:28:40;13.90;79.00
4433;DHT22;2229;48.708;9.706;2023-05-27T04:31:07;14.00;79.00
4433;DHT22;2229;48.708;9.706;2023-05-27T04:33:44;14.00;79.00
4433;DHT22;2229;48.708;9.706;2023-05-27T04:36:12;14.10;78.90
4433;DHT22;2229;48.708;9.706;2023-05-27T04:38:57;14.10;78.80
4433;DHT22;2229;48.708;9.706;2023-05-27T04:41:25;14.10;78.70
4433;DHT22;2229;48.708;9.706;2023-05-27T04:43:59;14.20;78.80
4433;DHT22;2229;48.708;9.706;2023-05-27T04:46:32;14.30;78.90
4433;DHT22;2229;48.708;9.706;2023-05-27T04:49:00;14.20;78.80
4433;DHT22;2229;48.708;9.706;2023-05-27T04:51:27;14.30;78.80
4433;DHT22;2229;48.708;9.706;2023-05-27T04:53:55;14.40;79.00
4433;DHT22;2229;48.708;9.706;2023-05-27T04:56:23;14.40;79.00
4433;DHT22;2229;48.708;9.706;2023-05-27T04:58:51;14.50;79.10
4433;DHT22;2229;48.708;9.706;2023-05-27T05:01:22;14.50;78.90
4433;DHT22;2229;48.708;9.706;2023-05-27T05:04:01;14.50;79.00
4433;DHT22;2229;48.708;9.706;2023-05-27T05:06:44;14.60;79.20
4433;DHT22;2229;48.708;9.706;2023-05-27T05:09:11;14.60;79.10
4433;DHT22;2229;48.708;9.706;2023-05-27T05:11:39;14.70;79.10
4433;DHT22;2229;48.708;9.706;2023-05-27T05:14:11;14.70;79.00
4433;DHT22;2229;48.708;9.706;2023-05-27T05:16:40;14.80;79.10
4433;DHT22;2229;48.708;9.706;2023-05-27T05:19:11;14.80;79.10
4433;DHT22;2229;48.708;9.706;2023-05-27T05:21:39;14.90;79.10
4433;DHT22;2229;48.708;9.706;2023-05-27T05:24:09;14.90;79.10
4433;DHT22;2229;48.708;9.706;2023-05-27T05:26:38;15.00;79.00
4433;DHT22;2229;48.708;9.706;2023-05-27T05:29:05;15.00;78.90
4433;DHT22;2229;48.708;9.706;2023-05-27T05:31:33;15.10;79.00
4433;DHT22;2229;48.708;9.706;2023-05-27T05:34:02;15.10;78.90
4433;DHT22;2229;48.708;9.706;2023-05-27T05:36:34;15.20;78.90
4433;DHT22;2229;48.708;9.706;2023-05-27T05:39:06;15.20;78.80
4433;DHT22;2229;48.708;9.706;2023-05-27T05:41:37;15.30;78.90
4433;DHT22;2229;48.708;9.706;2023-05-27T05:44:04;15.40;79.00
4433;DHT22;2229;48.708;9.706;2023-05-27T05:46:32;15.50;79.10
4433;DHT22;2229;48.708;9.706;2023-05-27T05:48:59;15.50;79.00
4433;DHT22;2229;48.708;9.706;2023-05-27T05:51:37;15.60;79.00
4433;DHT22;2229;48.708;9.706;2023-05-27T05:54:05;15.70;79.00
4433;DHT22;2229;48.708;9.706;2023-05-27T05:56:34;15.80;78.90
4433;DHT22;2229;48.708;9.706;2023-05-27T05:59:02;15.90;79.10
4433;DHT22;2229;48.708;9.706;2023-05-27T06:01:32;16.00;78.90
4433;DHT22;2229;48.708;9.706;2023-05-27T06:04:00;16.10;78.60
4433;DHT22;2229;48.708;9.706;2023-05-27T06:06:34;16.10;78.20
4433;DHT22;2229;48.708;9.706;2023-05-27T06:09:23;16.20;78.20
4433;DHT22;2229;48.708;9.706;2023-05-27T06:11:54;16.30;78.30
4433;DHT22;2229;48.708;9.706;2023-05-27T06:14:22;16.40;78.40
4433;DHT22;2229;48.708;9.706;2023-05-27T06:16:51;16.50;78.50
4433;DHT22;2229;48.708;9.706;2023-05-27T06:19:18;16.60;78.40
4433;DHT22;2229;48.708;9.706;2023-05-27T06:21:46;16.60;78.10
4433;DHT22;2229;48.708;9.706;2023-05-27T06:24:34;16.70;77.90
4433;DHT22;2229;48.708;9.706;2023-05-27T06:27:10;16.80;77.70
4433;DHT22;2229;48.708;9.706;2023-05-27T06:29:37;16.90;77.80
4433;DHT22;2229;48.708;9.706;2023-05-27T06:32:06;17.00;77.70
4433;DHT22;2229;48.708;9.706;2023-05-27T06:34:33;17.10;77.70
4433;DHT22;2229;48.708;9.706;2023-05-27T06:37:02;17.20;78.30
4433;DHT22;2229;48.708;9.706;2023-05-27T06:39:30;17.30;77.80
4433;DHT22;2229;48.708;9.706;2023-05-27T06:41:58;17.40;77.40
4433;DHT22;2229;48.708;9.706;2023-05-27T06:44:52;17.50;77.50
4433;DHT22;2229;48.708;9.706;2023-05-27T06:47:22;17.60;76.90
4433;DHT22;2229;48.708;9.706;2023-05-27T06:49:50;17.70;76.50
4433;DHT22;2229;48.708;9.706;2023-05-27T06:52:18;17.80;76.30
4433;DHT22;2229;48.708;9.706;2023-05-27T06:55:14;17.90;76.40
4433;DHT22;2229;48.708;9.706;2023-05-27T06:58:03;18.00;76.00
4433;DHT22;2229;48.708;9.706;2023-05-27T07:00:53;18.20;76.20
4433;DHT22;2229;48.708;9.706;2023-05-27T07:03:37;18.30;76.30
4433;DHT22;2229;48.708;9.706;2023-05-27T07:06:06;18.40;75.90
4433;DHT22;2229;48.708;9.706;2023-05-27T07:08:41;18.50;75.90
4433;DHT22;2229;48.708;9.706;2023-05-27T07:11:20;18.60;75.70
4433;DHT22;2229;48.708;9.706;2023-05-27T07:13:49;18.70;75.40
4433;DHT22;2229;48.708;9.706;2023-05-27T07:16:21;18.80;75.10
4433;DHT22;2229;48.708;9.706;2023-05-27T07:18:48;18.90;74.90
4433;DHT22;2229;48.708;9.706;2023-05-27T07:21:15;19.00;75.00
4433;DHT22;2229;48.708;9.706;2023-05-27T07:23:43;19.10;75.00
4433;DHT22;2229;48.708;9.706;2023-05-27T07:26:26;19.20;75.00
4433;DHT22;2229;48.708;9.706;2023-05-27T07:28:57;19.40;74.90
4433;DHT22;2229;48.708;9.706;2023-05-27T07:31:43;19.50;74.90
4433;DHT22;2229;48.708;9.706;2023-05-27T07:34:13;19.60;74.60
4433;DHT22;2229;48.708;9.706;2023-05-27T07:36:40;19.80;74.20
4433;DHT22;2229;48.708;9.706;2023-05-27T07:39:08;19.90;74.30
4433;DHT22;2229;48.708;9.706;2023-05-27T07:41:35;20.00;73.90
4433;DHT22;2229;48.708;9.706;2023-05-27T07:44:05;20.10;73.50
4433;DHT22;2229;48.708;9.706;2023-05-27T07:46:32;20.20;73.00
4433;DHT22;2229;48.708;9.706;2023-05-27T07:49:00;20.30;73.30
4433;DHT22;2229;48.708;9.706;2023-05-27T07:51:27;20.50;73.50
4433;DHT22;2229;48.708;9.706;2023-05-27T07:53:54;20.60;72.90
4433;DHT22;2229;48.708;9.706;2023-05-27T07:56:23;20.70;72.80
4433;DHT22;2229;48.708;9.706;2023-05-27T07:58:50;20.80;72.70
4433;DHT22;2229;48.708;9.706;2023-05-27T08:01:20;21.00;72.30
4433;DHT22;2229;48.708;9.706;2023-05-27T08:03:51;21.10;72.20
4433;DHT22;2229;48.708;9.706;2023-05-27T08:06:36;21.30;71.60
4433;DHT22;2229;48.708;9.706;2023-05-27T08:09:12;21.40;70.10
4433;DHT22;2229;48.708;9.706;2023-05-27T08:12:02;21.50;69.40
4433;DHT22;2229;48.708;9.706;2023-05-27T08:14:40;21.60;69.20
4433;DHT22;2229;48.708;9.706;2023-05-27T08:17:15;21.70;69.10
4433;DHT22;2229;48.708;9.706;2023-05-27T08:20:06;21.80;68.90
4433;DHT22;2229;48.708;9.706;2023-05-27T08:22:57;21.90;67.50
4433;DHT22;2229;48.708;9.706;2023-05-27T08:25:53;22.00;65.60
4433;DHT22;2229;48.708;9.706;2023-05-27T08:28:32;22.10;64.70
4433;DHT22;2229;48.708;9.706;2023-05-27T08:31:18;22.20;65.00
4433;DHT22;2229;48.708;9.706;2023-05-27T08:33:51;22.30;64.30
4433;DHT22;2229;48.708;9.706;2023-05-27T08:36:19;22.40;64.90
4433;DHT22;2229;48.708;9.706;2023-05-27T08:38:48;22.40;64.70
4433;DHT22;2229;48.708;9.706;2023-05-27T08:41:29;22.50;64.50
4433;DHT22;2229;48.708;9.706;2023-05-27T08:43:59;22.60;63.90
4433;DHT22;2229;48.708;9.706;2023-05-27T08:46:27;22.70;63.40
4433;DHT22;2229;48.708;9.706;2023-05-27T08:48:56;22.80;64.00
4433;DHT22;2229;48.708;9.706;2023-05-27T08:51:23;22.90;65.00
4433;DHT22;2229;48.708;9.706;2023-05-27T08:53:51;23.00;65.90
4433;DHT22;2229;48.708;9.706;2023-05-27T08:56:19;23.20;66.60
4433;DHT22;2229;48.708;9.706;2023-05-27T08:58:51;23.30;65.30
4433;DHT22;2229;48.708;9.706;2023-05-27T09:01:20;23.40;63.90
4433;DHT22;2229;48.708;9.706;2023-05-27T09:03:49;23.60;64.50
4433;DHT22;2229;48.708;9.706;2023-05-27T09:06:19;23.70;65.60
4433;DHT22;2229;48.708;9.706;2023-05-27T09:08:46;23.80;65.20
4433;DHT22;2229;48.708;9.706;2023-05-27T09:11:20;24.00;65.70
4433;DHT22;2229;48.708;9.706;2023-05-27T09:13:47;24.10;65.40
4433;DHT22;2229;48.708;9.706;2023-05-27T09:16:20;24.20;63.70
4433;DHT22;2229;48.708;9.706;2023-05-27T09:18:47;24.20;61.20
4433;DHT22;2229;48.708;9.706;2023-05-27T09:21:15;24.30;59.40
4433;DHT22;2229;48.708;9.706;2023-05-27T09:23:44;24.30;58.80
4433;DHT22;2229;48.708;9.706;2023-05-27T09:26:12;24.30;59.60
4433;DHT22;2229;48.708;9.706;2023-05-27T09:28:40;24.40;60.10
4433;DHT22;2229;48.708;9.706;2023-05-27T09:31:08;24.50;60.60
4433;DHT22;2229;48.708;9.706;2023-05-27T09:33:37;24.70;61.10
4433;DHT22;2229;48.708;9.706;2023-05-27T09:36:07;24.80;61.30
4433;DHT22;2229;48.708;9.706;2023-05-27T09:38:35;24.90;61.80
4433;DHT22;2229;48.708;9.706;2023-05-27T09:41:04;25.00;59.30
4433;DHT22;2229;48.708;9.706;2023-05-27T09:43:31;25.10;58.70
4433;DHT22;2229;48.708;9.706;2023-05-27T09:45:59;25.10;59.10
4433;DHT22;2229;48.708;9.706;2023-05-27T09:48:29;25.20;59.00
4433;DHT22;2229;48.708;9.706;2023-05-27T09:50:57;25.30;58.60
4433;DHT22;2229;48.708;9.706;2023-05-27T09:53:26;25.40;58.30
4433;DHT22;2229;48.708;9.706;2023-05-27T09:55:54;25.40;57.80
4433;DHT22;2229;48.708;9.706;2023-05-27T09:58:23;25.40;57.70
4433;DHT22;2229;48.708;9.706;2023-05-27T10:00:52;25.50;58.00
4433;DHT22;2229;48.708;9.706;2023-05-27T10:03:21;25.60;57.70
4433;DHT22;2229;48.708;9.706;2023-05-27T10:05:50;25.70;58.60
4433;DHT22;2229;48.708;9.706;2023-05-27T10:08:18;25.80;58.50
4433;DHT22;2229;48.708;9.706;2023-05-27T10:10:45;26.00;58.50
4433;DHT22;2229;48.708;9.706;2023-05-27T10:13:14;26.00;57.90
4433;DHT22;2229;48.708;9.706;2023-05-27T10:15:46;26.10;56.10
4433;DHT22;2229;48.708;9.706;2023-05-27T10:18:22;26.10;56.50
4433;DHT22;2229;48.708;9.706;2023-05-27T10:20:50;26.10;56.90
4433;DHT22;2229;48.708;9.706;2023-05-27T10:23:21;26.30;56.70
4433;DHT22;2229;48.708;9.706;2023-05-27T10:25:50;26.30;56.50
4433;DHT22;2229;48.708;9.706;2023-05-27T10:28:24;26.40;56.80
4433;DHT22;2229;48.708;9.706;2023-05-27T10:31:02;26.50;56.50
4433;DHT22;2229;48.708;9.706;2023-05-27T10:33:30;26.60;55.90
4433;DHT22;2229;48.708;9.706;2023-05-27T10:36:03;26.70;56.00
4433;DHT22;2229;48.708;9.706;2023-05-27T10:38:31;26.80;55.80
4433;DHT22;2229;48.708;9.706;2023-05-27T10:40:59;26.90;55.80
4433;DHT22;2229;48.708;9.706;2023-05-27T10:43:28;26.90;55.10
4433;DHT22;2229;48.708;9.706;2023-05-27T10:46:03;26.90;55.00
4433;DHT22;2229;48.708;9.706;2023-05-27T10:48:32;26.90;55.00
4433;DHT22;2229;48.708;9.706;2023-05-27T10:51:00;27.00;54.90
4433;DHT22;2229;48.708;9.706;2023-05-27T10:53:28;26.90;54.90
4433;DHT22;2229;48.708;9.706;2023-05-27T10:55:58;27.00;55.30
4433;DHT22;2229;48.708;9.706;2023-05-27T10:58:26;27.10;55.00
4433;DHT22;2229;48.708;9.706;2023-05-27T11:00:54;27.10;54.90
4433;DHT22;2229;48.708;9.706;2023-05-27T11:03:25;27.20;55.20
4433;DHT22;2229;48.708;9.706;2023-05-27T11:06:00;27.40;55.00
4433;DHT22;2229;48.708;9.706;2023-05-27T11:08:29;27.40;53.70
4433;DHT22;2229;48.708;9.706;2023-05-27T11:11:00;27.50;53.60
4433;DHT22;2229;48.708;9.706;2023-05-27T11:13:32;27.60;53.50
4433;DHT22;2229;48.708;9.706;2023-05-27T11:16:01;27.70;53.50
4433;DHT22;2229;48.708;9.706;2023-05-27T11:18:37;27.80;52.90
4433;DHT22;2229;48.708;9.706;2023-05-27T11:21:04;27.80;53.60
4433;DHT22;2229;48.708;9.706;2023-05-27T11:23:36;28.00;54.20
4433;DHT22;2229;48.708;9.706;2023-05-27T11:26:11;28.10;54.20
4433;DHT22;2229;48.708;9.706;2023-05-27T11:28:45;28.30;53.40
4433;DHT22;2229;48.708;9.706;2023-05-27T11:31:13;28.50;53.40
4433;DHT22;2229;48.708;9.706;2023-05-27T11:33:43;28.70;53.60
4433;DHT22;2229;48.708;9.706;2023-05-27T11:36:12;28.90;53.60
4433;DHT22;2229;48.708;9.706;2023-05-27T11:38:48;29.10;52.80
4433;DHT22;2229;48.708;9.706;2023-05-27T11:41:16;29.10;52.60
4433;DHT22;2229;48.708;9.706;2023-05-27T11:43:48;29.20;52.10
4433;DHT22;2229;48.708;9.706;2023-05-27T11:46:16;29.10;51.60
4433;DHT22;2229;48.708;9.706;2023-05-27T11:48:45;28.90;51.70
4433;DHT22;2229;48.708;9.706;2023-05-27T11:51:13;28.80;52.20
4433;DHT22;2229;48.708;9.706;2023-05-27T11:53:44;28.70;52.10
4433;DHT22;2229;48.708;9.706;2023-05-27T11:56:12;28.60;52.00
4433;DHT22;2229;48.708;9.706;2023-05-27T11:58:39;28.40;52.50
4433;DHT22;2229;48.708;9.706;2023-05-27T12:01:06;28.30;52.00
4433;DHT22;2229;48.708;9.706;2023-05-27T12:03:34;28.20;52.30
4433;DHT22;2229;48.708;9.706;2023-05-27T12:06:03;28.00;51.40
4433;DHT22;2229;48.708;9.706;2023-05-27T12:08:30;27.80;51.20
4433;DHT22;2229;48.708;9.706;2023-05-27T12:10:57;27.60;51.10
4433;DHT22;2229;48.708;9.706;2023-05-27T12:13:26;27.40;51.30
4433;DHT22;2229;48.708;9.706;2023-05-27T12:15:55;27.30;51.90
4433;DHT22;2229;48.708;9.706;2023-05-27T12:18:22;27.30;51.80
4433;DHT22;2229;48.708;9.706;2023-05-27T12:20:50;27.20;52.10
4433;DHT22;2229;48.708;9.706;2023-05-27T12:23:20;27.20;52.20
4433;DHT22;2229;48.708;9.706;2023-05-27T12:25:48;27.10;52.00
4433;DHT22;2229;48.708;9.706;2023-05-27T12:28:15;27.10;51.70
4433;DHT22;2229;48.708;9.706;2023-05-27T12:30:42;27.00;51.50
4433;DHT22;2229;48.708;9.706;2023-05-27T12:33:09;26.90;51.60
4433;DHT22;2229;48.708;9.706;2023-05-27T12:35:36;26.90;52.00
4433;DHT22;2229;48.708;9.706;2023-05-27T12:38:03;26.90;51.80
4433;DHT22;2229;48.708;9.706;2023-05-27T12:40:32;26.90;51.70
4433;DHT22;2229;48.708;9.706;2023-05-27T12:42:59;26.80;51.60
4433;DHT22;2229;48.708;9.706;2023-05-27T12:45:29;26.80;51.30
4433;DHT22;2229;48.708;9.706;2023-05-27T12:47:57;26.70;51.10
4433;DHT22;2229;48.708;9.706;2023-05-27T12:50:25;26.70;51.20
4433;DHT22;2229;48.708;9.706;2023-05-27T12:52:52;26.70;51.30
4433;DHT22;2229;48.708;9.706;2023-05-27T12:55:21;26.70;50.80
4433;DHT22;2229;48.708;9.706;2023-05-27T12:57:50;26.70;50.50
4433;DHT22;2229;48.708;9.706;2023-05-27T13:00:19;26.60;50.50
4433;DHT22;2229;48.708;9.706;2023-05-27T13:02:48;26.60;50.20
4433;DHT22;2229;48.708;9.706;2023-05-27T13:05:19;26.60;50.60
4433;DHT22;2229;48.708;9.706;2023-05-27T13:07:54;26.60;50.50
4433;DHT22;2229;48.708;9.706;2023-05-27T13:10:22;26.60;50.10
4433;DHT22;2229;48.708;9.706;2023-05-27T13:12:51;26.50;50.30
4433;DHT22;2229;48.708;9.706;2023-05-27T13:15:19;26.50;50.30
4433;DHT22;2229;48.708;9.706;2023-05-27T13:17:50;26.50;50.30
4433;DHT22;2229;48.708;9.706;2023-05-27T13:20:18;26.60;50.10
4433;DHT22;2229;48.708;9.706;2023-05-27T13:22:45;26.60;50.40
4433;DHT22;2229;48.708;9.706;2023-05-27T13:25:14;26.60;50.70
4433;DHT22;2229;48.708;9.706;2023-05-27T13:27:42;26.60;50.60
4433;DHT22;2229;48.708;9.706;2023-05-27T13:30:14;26.60;49.80
4433;DHT22;2229;48.708;9.706;2023-05-27T13:32:42;26.60;49.20
4433;DHT22;2229;48.708;9.706;2023-05-27T13:35:10;26.50;49.00
4433;DHT22;2229;48.708;9.706;2023-05-27T13:37:38;26.50;49.30
4433;DHT22;2229;48.708;9.706;2023-05-27T13:40:06;26.50;49.90
4433;DHT22;2229;48.708;9.706;2023-05-27T13:42:34;26.60;49.70
4433;DHT22;2229;48.708;9.706;2023-05-27T13:45:01;26.60;49.70
4433;DHT22;2229;48.708;9.706;2023-05-27T13:47:31;26.60;49.60
4433;DHT22;2229;48.708;9.706;2023-05-27T13:49:58;26.60;49.30
4433;DHT22;2229;48.708;9.706;2023-05-27T13:52:26;26.60;49.30
4433;DHT22;2229;48.708;9.706;2023-05-27T13:54:53;26.60;49.30
4433;DHT22;2229;48.708;9.706;2023-05-27T13:57:21;26.70;49.60
4433;DHT22;2229;48.708;9.706;2023-05-27T13:59:48;26.60;49.60
4433;DHT22;2229;48.708;9.706;2023-05-27T14:02:16;26.60;49.60
4433;DHT22;2229;48.708;9.706;2023-05-27T14:04:44;26.60;49.50
4433;DHT22;2229;48.708;9.706;2023-05-27T14:07:11;26.50;49.30
4433;DHT22;2229;48.708;9.706;2023-05-27T14:09:38;26.50;49.50
4433;DHT22;2229;48.708;9.706;2023-05-27T14:12:06;26.40;49.50
4433;DHT22;2229;48.708;9.706;2023-05-27T14:14:33;26.40;49.60
4433;DHT22;2229;48.708;9.706;2023-05-27T14:17:02;26.40;49.90
4433;DHT22;2229;48.708;9.706;2023-05-27T14:19:29;26.40;50.10
4433;DHT22;2229;48.708;9.706;2023-05-27T14:21:57;26.40;50.10
4433;DHT22;2229;48.708;9.706;2023-05-27T14:24:25;26.40;49.90
4433;DHT22;2229;48.708;9.706;2023-05-27T14:26:52;26.40;50.30
4433;DHT22;2229;48.708;9.706;2023-05-27T14:29:20;26.40;50.90
4433;DHT22;2229;48.708;9.706;2023-05-27T14:31:47;26.40;50.40
4433;DHT22;2229;48.708;9.706;2023-05-27T14:34:14;26.40;50.20
4433;DHT22;2229;48.708;9.706;2023-05-27T14:36:41;26.40;50.00
4433;DHT22;2229;48.708;9.706;2023-05-27T14:39:10;26.40;50.30
4433;DHT22;2229;48.708;9.706;2023-05-27T14:41:37;26.30;50.50
4433;DHT22;2229;48.708;9.706;2023-05-27T14:44:04;26.30;50.50
4433;DHT22;2229;48.708;9.706;2023-05-27T14:46:31;26.30;50.50
4433;DHT22;2229;48.708;9.706;2023-05-27T14:48:59;26.30;50.50
4433;DHT22;2229;48.708;9.706;2023-05-27T14:51:26;26.30;50.50
4433;DHT22;2229;48.708;9.706;2023-05-27T14:53:53;26.30;50.60
4433;DHT22;2229;48.708;9.706;2023-05-27T14:56:22;26.30;50.80
4433;DHT22;2229;48.708;9.706;2023-05-27T14:58:49;26.30;51.00
4433;DHT22;2229;48.708;9.706;2023-05-27T15:01:16;26.30;50.60
4433;DHT22;2229;48.708;9.706;2023-05-27T15:03:43;26.20;50.50
4433;DHT22;2229;48.708;9.706;2023-05-27T15:06:11;26.20;50.60
4433;DHT22;2229;48.708;9.706;2023-05-27T15:08:39;26.30;50.90
4433;DHT22;2229;48.708;9.706;2023-05-27T15:11:06;26.20;50.00
4433;DHT22;2229;48.708;9.706;2023-05-27T15:13:35;26.20;50.20
4433;DHT22;2229;48.708;9.706;2023-05-27T15:16:02;26.10;49.90
4433;DHT22;2229;48.708;9.706;2023-05-27T15:18:30;26.10;50.40
4433;DHT22;2229;48.708;9.706;2023-05-27T15:20:57;26.10;50.30
4433;DHT22;2229;48.708;9.706;2023-05-27T15:23:24;26.10;50.40
4433;DHT22;2229;48.708;9.706;2023-05-27T15:25:52;26.10;50.40
4433;DHT22;2229;48.708;9.706;2023-05-27T15:28:20;26.10;50.40
4433;DHT22;2229;48.708;9.706;2023-05-27T15:30:48;26.10;50.20
4433;DHT22;2229;48.708;9.706;2023-05-27T15:33:17;26.00;50.20
4433;DHT22;2229;48.708;9.706;2023-05-27T15:35:45;26.00;50.00
4433;DHT22;2229;48.708;9.706;2023-05-27T15:38:12;25.90;50.10
4433;DHT22;2229;48.708;9.706;2023-05-27T15:40:40;25.90;50.10
4433;DHT22;2229;48.708;9.706;2023-05-27T15:43:10;25.90;50.30
4433;DHT22;2229;48.708;9.706;2023-05-27T15:45:39;25.80;50.40
4433;DHT22;2229;48.708;9.706;2023-05-27T15:48:08;25.80;50.60
4433;DHT22;2229;48.708;9.706;2023-05-27T15:50:39;25.80;50.40
4433;DHT22;2229;48.708;9.706;2023-05-27T15:53:06;25.70;50.20
4433;DHT22;2229;48.708;9.706;2023-05-27T15:55:34;25.60;50.10
4433;DHT22;2229;48.708;9.706;2023-05-27T15:58:01;25.60;50.00
4433;DHT22;2229;48.708;9.706;2023-05-27T16:00:28;25.60;50.00
4433;DHT22;2229;48.708;9.706;2023-05-27T16:02:56;25.50;49.90
4433;DHT22;2229;48.708;9.706;2023-05-27T16:05:24;25.50;50.60
4433;DHT22;2229;48.708;9.706;2023-05-27T16:07:51;25.40;50.20
4433;DHT22;2229;48.708;9.706;2023-05-27T16:10:19;25.40;50.20
4433;DHT22;2229;48.708;9.706;2023-05-27T16:12:46;25.40;50.20
4433;DHT22;2229;48.708;9.706;2023-05-27T16:15:14;25.40;50.00
4433;DHT22;2229;48.708;9.706;2023-05-27T16:17:42;25.30;50.00